createdAt,value
2023-05-11T00:01:34.008Z,14.10
2023-05-11T00:04:01.375Z,13.90
2023-05-11T00:06:28.852Z,13.80
2023-05-11T00:08:55.867Z,13.80
2023-05-11T00:11:23.754Z,13.70
2023-05-11T00:13:51.002Z,13.90
2023-05-11T00:16:18.083Z,13.80
2023-05-11T00:18:45.250Z,13.80
2023-05-11T00:21:12.624Z,13.70
2023-05-11T00:23:39.657Z,13.80
2023-05-11T00:26:06.774Z,13.70
2023-05-11T00:28:33.785Z,13.70
2023-05-11T00:31:00.976Z,13.80
2023-05-11T00:33:28.167Z,13.60
2023-05-11T00:35:55.170Z,13.90
2023-05-11T00:38:22.489Z,13.60
2023-05-11T00:40:50.226Z,13.60
2023-05-11T00:43:17.660Z,13.80
2023-05-11T00:45:48.056Z,13.70
2023-05-11T00:48:16.276Z,13.80
2023-05-11T00:50:43.591Z,13.60
2023-05-11T00:53:11.706Z,13.70
2023-05-11T00:55:38.806Z,13.70
2023-05-11T00:58:06.447Z,13.70
2023-05-11T01:00:33.763Z,14.20
2023-05-11T01:03:02.122Z,13.80
2023-05-11T01:05:44.480Z,13.30
2023-05-11T01:08:41.360Z,13.60
2023-05-11T01:11:14.006Z,13.60
2023-05-11T01:13:47.477Z,13.60
2023-05-11T01:16:24.616Z,13.60
2023-05-11T01:19:11.199Z,13.40
2023-05-11T01:21:40.656Z,13.60
2023-05-11T01:24:52.480Z,13.50
2023-05-11T01:28:02.723Z,13.70
2023-05-11T01:30:37.906Z,13.50
2023-05-11T01:33:11.048Z,13.40
2023-05-11T01:35:50.643Z,13.40
2023-05-11T01:38:22.006Z,13.40
2023-05-11T01:40:56.759Z,13.40
2023-05-11T01:43:28.097Z,13.10
2023-05-11T01:46:01.209Z,13.50
2023-05-11T01:48:32.147Z,13.20
2023-05-11T01:51:03.188Z,13.50
2023-05-11T01:53:37.792Z,13.60
2023-05-11T01:56:06.619Z,13.30
2023-05-11T01:58:37.361Z,13.40
2023-05-11T02:01:05.450Z,13.20
2023-05-11T02:03:36.606Z,13.40
2023-05-11T02:06:05.811Z,13.40
2023-05-11T02:08:36.093Z,13.40
2023-05-11T02:11:04.757Z,13.30
2023-05-11T02:13:35.249Z,13.30
2023-05-11T02:16:03.852Z,13.30
2023-05-11T02:18:32.114Z,13.40
2023-05-11T02:21:01.404Z,13.40
2023-05-11T02:23:32.926Z,13.30
2023-05-11T02:28:27.825Z,13.30
2023-05-11T02:30:57.536Z,13.00
2023-05-11T02:33:34.559Z,13.30
2023-05-11T02:36:03.755Z,13.20
2023-05-11T02:38:35.384Z,13.30
2023-05-11T02:41:09.740Z,13.00
2023-05-11T02:43:37.374Z,13.30
2023-05-11T02:46:09.210Z,13.20
2023-05-11T02:48:47.656Z,13.20
2023-05-11T02:51:19.374Z,13.30
2023-05-11T02:53:55.118Z,13.00
2023-05-11T02:56:24.253Z,13.30
2023-05-11T03:03:52.794Z,12.50
2023-05-11T03:06:20.391Z,13.20
2023-05-11T03:08:48.323Z,12.00
2023-05-11T03:11:17.996Z,13.10
2023-05-11T03:13:47.065Z,13.30
2023-05-11T03:16:17.932Z,13.00
2023-05-11T03:23:46.885Z,13.00
2023-05-11T03:26:17.948Z,13.20
2023-05-11T03:28:47.430Z,13.20
2023-05-11T03:31:14.875Z,13.60
2023-05-11T03:36:11.785Z,12.90
2023-05-11T03:38:39.869Z,13.00
2023-05-11T03:41:12.968Z,13.20
2023-05-11T03:43:41.664Z,13.20
2023-05-11T03:46:11.647Z,13.10
2023-05-11T03:48:40.838Z,13.10
2023-05-11T03:51:09.684Z,14.00
2023-05-11T03:53:38.036Z,13.00
2023-05-11T03:56:09.603Z,12.60
2023-05-11T03:58:41.281Z,12.90
2023-05-11T04:01:11.742Z,13.00
2023-05-11T04:03:53.084Z,12.80
2023-05-11T04:08:56.132Z,13.80
2023-05-11T04:11:23.267Z,13.00
2023-05-11T04:13:50.261Z,13.00
2023-05-11T04:18:45.114Z,13.00
2023-05-11T04:21:12.089Z,11.50
2023-05-11T04:23:39.232Z,12.90
2023-05-11T04:26:06.389Z,12.80
2023-05-11T04:28:33.353Z,13.20
2023-05-11T04:31:00.460Z,12.90
2023-05-11T04:33:27.832Z,13.10
2023-05-11T04:35:55.984Z,13.00
2023-05-11T04:38:25.004Z,13.00
2023-05-11T04:40:51.964Z,13.50
2023-05-11T04:43:20.771Z,12.80
2023-05-11T04:45:49.382Z,12.90
2023-05-11T04:48:20.978Z,12.80
2023-05-11T04:53:18.305Z,12.40
2023-05-11T04:55:46.690Z,12.90
2023-05-11T04:58:14.096Z,12.80
2023-05-11T05:00:41.288Z,12.80
2023-05-11T05:03:08.418Z,13.00
2023-05-11T05:05:35.536Z,11.90
2023-05-11T05:08:02.530Z,12.30
2023-05-11T05:10:29.534Z,12.90
2023-05-11T05:12:58.181Z,12.80
2023-05-11T05:15:26.098Z,12.80
2023-05-11T05:17:53.215Z,12.80
2023-05-11T05:20:21.158Z,13.10
2023-05-11T05:22:48.238Z,12.70
2023-05-11T05:25:15.689Z,12.90
2023-05-11T05:27:43.298Z,12.60
2023-05-11T05:30:16.676Z,12.80
2023-05-11T05:35:13.129Z,13.10
2023-05-11T05:37:40.950Z,12.80
2023-05-11T05:40:08.839Z,12.10
2023-05-11T05:42:41.032Z,14.10
2023-05-11T05:45:12.563Z,12.80
2023-05-11T05:47:41.941Z,12.90
2023-05-11T05:50:09.681Z,12.80
2023-05-11T05:52:36.673Z,12.80
2023-05-11T05:55:04.558Z,12.90
2023-05-11T05:57:32.581Z,12.80
2023-05-11T05:59:59.798Z,12.80
2023-05-11T06:02:28.050Z,12.80
2023-05-11T06:04:55.542Z,12.80
2023-05-11T06:07:22.629Z,12.80
2023-05-11T06:09:50.133Z,12.90
2023-05-11T06:12:17.225Z,12.90
2023-05-11T06:14:47.208Z,12.70
2023-05-11T06:17:14.593Z,12.80
2023-05-11T06:19:41.654Z,12.70
2023-05-11T06:22:09.684Z,12.80
2023-05-11T06:24:37.011Z,12.90
2023-05-11T06:27:04.653Z,12.80
2023-05-11T06:29:32.761Z,13.10
2023-05-11T06:32:01.885Z,12.70
2023-05-11T06:34:31.492Z,12.70
2023-05-11T06:37:02.741Z,13.10
2023-05-11T06:39:29.932Z,13.10
2023-05-11T06:41:59.476Z,12.90
2023-05-11T06:44:28.812Z,12.80
2023-05-11T06:46:57.740Z,12.70
2023-05-11T06:49:24.852Z,13.20
2023-05-11T06:51:52.079Z,12.70
2023-05-11T06:54:21.039Z,12.80
2023-05-11T06:56:47.980Z,12.80
2023-05-11T06:59:14.987Z,12.70
2023-05-11T07:01:42.150Z,12.70
2023-05-11T07:04:09.286Z,12.80
2023-05-11T07:06:36.279Z,12.80
2023-05-11T07:09:03.948Z,12.80
2023-05-11T07:11:31.578Z,12.70
2023-05-11T07:13:58.559Z,12.80
2023-05-11T07:18:53.027Z,12.70
2023-05-11T07:21:22.108Z,12.70
2023-05-11T07:23:49.114Z,12.70
2023-05-11T07:26:16.517Z,12.80
2023-05-11T07:28:43.531Z,12.80
2023-05-11T07:31:10.577Z,12.80
2023-05-11T07:33:39.404Z,12.80
2023-05-11T07:36:07.675Z,12.90
2023-05-11T07:38:34.835Z,12.70
2023-05-11T07:41:01.876Z,13.00
2023-05-11T07:43:29.123Z,12.50
2023-05-11T07:45:56.239Z,12.80
2023-05-11T07:48:23.243Z,13.30
2023-05-11T07:50:50.223Z,12.80
2023-05-11T07:53:17.393Z,12.80
2023-05-11T07:58:11.806Z,12.90
2023-05-11T08:00:38.804Z,12.90
2023-05-11T08:03:06.643Z,12.80
2023-05-11T08:05:37.364Z,13.00
2023-05-11T08:08:05.378Z,12.80
2023-05-11T08:10:32.496Z,12.80
2023-05-11T08:12:59.697Z,13.10
2023-05-11T08:15:27.011Z,12.90
2023-05-11T08:17:54.216Z,12.90
2023-05-11T08:20:21.337Z,12.90
2023-05-11T08:22:48.735Z,12.90
2023-05-11T08:25:16.620Z,12.80
2023-05-11T08:27:43.851Z,12.80
2023-05-11T08:30:12.131Z,12.90
2023-05-11T08:35:25.943Z,13.00
2023-05-11T08:37:53.277Z,12.90
2023-05-11T08:40:21.714Z,12.90
2023-05-11T08:42:49.669Z,13.10
2023-05-11T08:45:18.324Z,13.00
2023-05-11T08:47:46.583Z,13.00
2023-05-11T08:50:13.750Z,13.00
2023-05-11T08:55:10.226Z,13.10
2023-05-11T08:57:38.666Z,13.10
2023-05-11T09:00:07.298Z,12.90
2023-05-11T09:02:35.803Z,13.00
2023-05-11T09:07:35.161Z,13.20
2023-05-11T09:10:02.821Z,13.30
2023-05-11T09:12:30.335Z,13.20
2023-05-11T09:17:29.328Z,13.20
2023-05-11T09:20:01.708Z,13.20
2023-05-11T09:22:31.036Z,13.30
2023-05-11T09:25:02.319Z,13.40
2023-05-11T09:27:29.268Z,13.10
2023-05-11T09:29:56.404Z,13.20
2023-05-11T09:32:23.870Z,13.30
2023-05-11T09:34:51.240Z,13.00
2023-05-11T09:37:19.142Z,13.30
2023-05-11T09:40:12.978Z,13.30
2023-05-11T09:42:33.075Z,13.20
2023-05-11T09:45:00.184Z,13.20
2023-05-11T09:47:27.713Z,13.20
2023-05-11T09:49:57.429Z,13.30
2023-05-11T09:52:24.432Z,13.10
2023-05-11T09:54:52.122Z,13.20
2023-05-11T09:57:30.818Z,13.20
2023-05-11T10:00:00.418Z,13.40
2023-05-11T10:02:29.370Z,13.30
2023-05-11T10:05:01.448Z,13.40
2023-05-11T10:07:35.783Z,13.40
2023-05-11T10:10:06.307Z,13.40
2023-05-11T10:12:34.634Z,13.30
2023-05-11T10:15:04.066Z,13.80
2023-05-11T10:17:32.195Z,12.60
2023-05-11T10:20:01.270Z,13.40
2023-05-11T10:22:30.028Z,13.50
2023-05-11T10:24:58.557Z,13.50
2023-05-11T10:27:26.528Z,12.50
2023-05-11T10:29:53.536Z,13.50
2023-05-11T10:32:21.575Z,13.40
2023-05-11T10:34:50.606Z,13.40
2023-05-11T10:37:18.534Z,14.10
2023-05-11T10:39:48.569Z,13.60
2023-05-11T10:43:00.226Z,13.70
2023-05-11T10:45:30.165Z,13.80
2023-05-11T10:48:52.755Z,13.40
2023-05-11T10:51:44.326Z,13.80
2023-05-11T10:54:57.392Z,13.10
2023-05-11T10:57:42.078Z,13.50
2023-05-11T11:00:49.811Z,13.60
2023-05-11T11:03:16.990Z,13.60
2023-05-11T11:05:45.182Z,13.60
2023-05-11T11:08:12.672Z,13.60
2023-05-11T11:10:51.678Z,13.70
2023-05-11T11:13:20.229Z,13.20
2023-05-11T11:15:54.379Z,13.70
2023-05-11T11:18:37.496Z,13.70
2023-05-11T11:21:15.580Z,13.30
2023-05-11T11:23:44.269Z,13.80
2023-05-11T11:26:15.513Z,13.70
2023-05-11T11:28:54.397Z,13.80
2023-05-11T11:31:29.955Z,14.00
2023-05-11T11:34:16.904Z,13.70
2023-05-11T11:36:56.109Z,13.90
2023-05-11T11:39:27.173Z,13.80
2023-05-11T11:42:09.392Z,14.10
2023-05-11T11:44:37.700Z,13.80
2023-05-11T11:47:26.225Z,13.80
2023-05-11T11:49:55.754Z,13.50
2023-05-11T11:52:28.767Z,13.90
2023-05-11T11:54:59.963Z,14.00
2023-05-11T11:57:44.099Z,14.10
2023-05-11T12:00:12.718Z,13.90
2023-05-11T12:02:45.583Z,14.80
2023-05-11T12:05:23.397Z,14.20
2023-05-11T12:07:52.964Z,13.10
2023-05-11T12:10:22.493Z,14.40
2023-05-11T12:12:54.821Z,14.20
2023-05-11T12:15:30.439Z,14.00
2023-05-11T12:17:57.694Z,14.20
2023-05-11T12:20:25.911Z,14.10
2023-05-11T12:22:53.644Z,14.10
2023-05-11T12:25:21.888Z,14.10
2023-05-11T12:28:03.090Z,14.30
2023-05-11T12:30:32.732Z,14.30
2023-05-11T12:33:01.250Z,14.20
2023-05-11T12:35:33.869Z,14.20
2023-05-11T12:38:02.877Z,14.90
2023-05-11T12:40:31.260Z,14.30
2023-05-11T12:43:00.775Z,14.30
2023-05-11T12:45:29.253Z,14.80
2023-05-11T12:47:58.649Z,14.30
2023-05-11T12:50:25.747Z,14.30
2023-05-11T12:52:52.886Z,14.40
2023-05-11T12:55:30.320Z,14.30
2023-05-11T12:58:16.687Z,14.40
2023-05-11T13:00:58.408Z,14.40
2023-05-11T13:03:29.098Z,14.60
2023-05-11T13:06:08.028Z,14.60
2023-05-11T13:08:46.538Z,14.50
2023-05-11T13:11:24.984Z,14.90
2023-05-11T13:13:53.839Z,14.50
2023-05-11T13:16:32.594Z,14.50
2023-05-11T13:19:02.804Z,14.60
2023-05-11T13:21:32.730Z,14.60
2023-05-11T13:24:01.461Z,14.60
2023-05-11T13:26:31.859Z,14.80
2023-05-11T13:29:10.031Z,14.70
2023-05-11T13:31:50.471Z,14.80
2023-05-11T13:34:18.823Z,13.80
2023-05-11T13:36:46.870Z,15.00
2023-05-11T13:39:13.911Z,14.80
2023-05-11T13:41:40.952Z,14.60
2023-05-11T13:44:08.034Z,15.00
2023-05-11T13:46:35.777Z,15.00
2023-05-11T13:49:03.763Z,15.00
2023-05-11T13:51:31.850Z,15.20
2023-05-11T13:56:26.975Z,15.00
2023-05-11T13:58:53.955Z,15.10
2023-05-11T14:03:53.829Z,15.10
2023-05-11T14:06:23.562Z,15.10
2023-05-11T14:08:51.088Z,14.80
2023-05-11T14:13:45.539Z,15.20
2023-05-11T14:16:12.712Z,14.90
2023-05-11T14:18:40.386Z,15.70
2023-05-11T14:21:07.402Z,15.40
2023-05-11T14:23:34.428Z,15.10
2023-05-11T14:26:01.497Z,14.90
2023-05-11T14:28:28.545Z,15.30
2023-05-11T14:30:56.082Z,14.20
2023-05-11T14:35:52.858Z,15.10
2023-05-11T14:38:20.143Z,15.20
2023-05-11T14:40:47.422Z,14.90
2023-05-11T14:43:14.398Z,15.30
2023-05-11T14:45:41.475Z,15.10
2023-05-11T14:48:08.570Z,15.20
2023-05-11T14:50:35.586Z,15.60
2023-05-11T14:53:02.699Z,15.20
2023-05-11T14:55:29.618Z,15.40
2023-05-11T14:57:56.548Z,15.00
2023-05-11T15:00:23.593Z,15.10
2023-05-11T15:02:50.771Z,15.10
2023-05-11T15:05:18.124Z,15.00
2023-05-11T15:07:45.334Z,15.00
2023-05-11T15:10:12.359Z,15.20
2023-05-11T15:12:40.057Z,15.20
2023-05-11T15:15:08.171Z,14.20
2023-05-11T15:17:35.226Z,15.20
2023-05-11T15:20:02.621Z,14.30
2023-05-11T15:22:29.771Z,15.20
2023-05-11T15:24:56.755Z,15.10
2023-05-11T15:27:23.875Z,15.00
2023-05-11T15:29:50.871Z,14.90
2023-05-11T15:32:18.172Z,15.10
2023-05-11T15:34:58.500Z,15.00
2023-05-11T15:37:27.963Z,15.10
2023-05-11T15:39:55.003Z,15.00
2023-05-11T15:42:22.360Z,15.10
2023-05-11T15:44:49.323Z,15.90
2023-05-11T15:47:16.480Z,15.00
2023-05-11T15:49:43.551Z,15.10
2023-05-11T15:52:10.557Z,15.60
2023-05-11T15:54:37.501Z,15.10
2023-05-11T15:59:35.114Z,15.00
2023-05-11T16:02:02.170Z,15.10
2023-05-11T16:04:29.237Z,15.00
2023-05-11T16:06:58.693Z,15.20
2023-05-11T16:09:25.868Z,15.00
2023-05-11T16:11:53.250Z,15.10
2023-05-11T16:14:20.252Z,15.00
2023-05-11T16:16:47.310Z,14.90
2023-05-11T16:21:43.594Z,14.60
2023-05-11T16:24:10.539Z,15.10
2023-05-11T16:26:37.547Z,15.00
2023-05-11T16:29:04.510Z,15.80
2023-05-11T16:31:31.590Z,14.50
2023-05-11T16:33:58.758Z,15.10
2023-05-11T16:36:25.779Z,14.90
2023-05-11T16:38:52.773Z,15.10
2023-05-11T16:41:19.743Z,14.80
2023-05-11T16:43:47.628Z,14.90
2023-05-11T16:46:14.725Z,15.20
2023-05-11T16:48:41.921Z,14.80
2023-05-11T16:51:08.994Z,15.40
2023-05-11T16:53:35.954Z,14.90
2023-05-11T16:56:02.985Z,14.90
2023-05-11T17:00:59.345Z,14.90
2023-05-11T17:05:54.105Z,14.70
2023-05-11T17:08:21.053Z,14.90
2023-05-11T17:10:48.077Z,12.70
2023-05-11T17:13:15.366Z,14.70
2023-05-11T17:15:42.441Z,14.70
2023-05-11T17:18:09.591Z,15.00
2023-05-11T17:20:36.666Z,14.80
2023-05-11T17:23:04.015Z,14.80
2023-05-11T17:27:58.856Z,14.70
2023-05-11T17:30:40.029Z,14.70
2023-05-11T17:33:13.558Z,14.80
2023-05-11T17:35:40.985Z,14.90
2023-05-11T17:38:08.071Z,14.60
2023-05-11T17:40:35.165Z,14.60
2023-05-11T17:43:02.698Z,15.40
2023-05-11T17:45:30.075Z,14.70
2023-05-11T17:47:57.262Z,14.60
2023-05-11T17:50:24.297Z,14.50
2023-05-11T17:52:51.473Z,14.30
2023-05-11T17:55:19.257Z,14.60
2023-05-11T17:57:51.504Z,14.60
2023-05-11T18:00:19.088Z,14.70
2023-05-11T18:02:48.735Z,14.60
2023-05-11T18:05:16.465Z,14.50
2023-05-11T18:07:43.705Z,14.80
2023-05-11T18:10:11.119Z,14.40
2023-05-11T18:12:38.457Z,14.50
2023-05-11T18:15:06.354Z,14.50
2023-05-11T18:17:33.415Z,14.50
2023-05-11T18:20:00.482Z,14.00
2023-05-11T18:22:29.166Z,14.60
2023-05-11T18:24:56.097Z,14.10
2023-05-11T18:27:23.290Z,14.40
2023-05-11T18:29:50.484Z,14.40
2023-05-11T18:34:48.038Z,14.50
2023-05-11T18:37:16.182Z,14.30
2023-05-11T18:39:43.144Z,13.50
2023-05-11T18:42:10.101Z,14.30
2023-05-11T18:44:37.075Z,14.40
2023-05-11T18:47:04.884Z,14.30
2023-05-11T18:49:32.140Z,14.20
2023-05-11T18:51:59.293Z,14.30
2023-05-11T18:54:26.241Z,14.20
2023-05-11T18:56:53.636Z,14.20
2023-05-11T18:59:20.619Z,14.20
2023-05-11T19:01:48.702Z,14.70
2023-05-11T19:04:19.583Z,14.20
2023-05-11T19:06:46.771Z,14.20
2023-05-11T19:09:14.320Z,14.10
2023-05-11T19:11:42.124Z,14.10
2023-05-11T19:14:10.481Z,14.10
2023-05-11T19:16:37.718Z,14.20
2023-05-11T19:19:04.880Z,14.20
2023-05-11T19:21:32.138Z,14.10
2023-05-11T19:23:59.463Z,14.20
2023-05-11T19:26:26.496Z,13.20
2023-05-11T19:28:53.504Z,14.10
2023-05-11T19:31:20.546Z,13.20
2023-05-11T19:33:47.502Z,14.10
2023-05-11T19:36:14.667Z,13.70
2023-05-11T19:38:41.669Z,14.10
2023-05-11T19:41:09.073Z,13.30
2023-05-11T19:43:39.241Z,14.00
2023-05-11T19:46:06.307Z,14.10
2023-05-11T19:51:01.229Z,14.10
2023-05-11T19:53:28.714Z,14.00
2023-05-11T19:55:56.154Z,14.00
2023-05-11T19:58:23.889Z,13.90
2023-05-11T20:00:50.879Z,13.90
2023-05-11T20:03:18.000Z,13.90
2023-05-11T20:05:45.585Z,13.60
2023-05-11T20:08:13.818Z,14.10
2023-05-11T20:10:40.799Z,14.00
2023-05-11T20:13:08.113Z,13.70
2023-05-11T20:15:35.542Z,13.80
2023-05-11T20:18:03.131Z,12.90
2023-05-11T20:20:31.737Z,13.90
2023-05-11T20:25:27.938Z,13.80
2023-05-11T20:27:54.883Z,13.80
2023-05-11T20:30:21.891Z,13.80
2023-05-11T20:35:19.111Z,13.80
2023-05-11T20:37:46.304Z,13.80
2023-05-11T20:40:13.488Z,13.80
2023-05-11T20:42:40.528Z,13.70
2023-05-11T20:45:08.357Z,13.80
2023-05-11T20:50:03.055Z,13.70
2023-05-11T20:52:30.285Z,13.60
2023-05-11T20:54:57.302Z,13.60
2023-05-11T20:57:24.344Z,13.50
2023-05-11T21:02:21.642Z,13.60
2023-05-11T21:04:48.666Z,13.60
2023-05-11T21:07:15.638Z,14.90
2023-05-11T21:09:44.511Z,13.20
2023-05-11T21:12:11.637Z,13.60
2023-05-11T21:14:38.708Z,13.60
2023-05-11T21:19:33.381Z,13.60
2023-05-11T21:22:00.411Z,13.60
2023-05-11T21:24:27.377Z,13.60
2023-05-11T21:26:54.311Z,13.60
2023-05-11T21:31:49.044Z,13.60
2023-05-11T21:34:16.889Z,13.60
2023-05-11T21:36:45.547Z,13.60
2023-05-11T21:41:42.866Z,13.60
2023-05-11T21:44:09.813Z,13.60
2023-05-11T21:49:04.432Z,13.60
2023-05-11T21:51:32.920Z,13.30
2023-05-11T21:54:00.309Z,13.40
2023-05-11T21:56:27.228Z,13.70
2023-05-11T21:58:57.067Z,13.40
2023-05-11T22:01:24.265Z,13.40
2023-05-11T22:03:51.484Z,14.00
2023-05-11T22:06:18.437Z,13.50
2023-05-11T22:08:45.378Z,13.90
2023-05-11T22:11:12.518Z,13.60
2023-05-11T22:13:39.491Z,12.40
2023-05-11T22:16:07.303Z,13.40
2023-05-11T22:18:34.394Z,13.40
2023-05-11T22:21:01.369Z,13.30
2023-05-11T22:23:28.395Z,13.30
2023-05-11T22:25:55.689Z,13.20
2023-05-11T22:28:22.938Z,13.40
2023-05-11T22:30:49.908Z,13.40
2023-05-11T22:33:16.858Z,12.40
2023-05-11T22:35:44.119Z,13.20
2023-05-11T22:38:11.352Z,13.40
2023-05-11T22:40:38.450Z,13.30
2023-05-11T22:43:05.607Z,13.40
2023-05-11T22:45:32.901Z,13.30
2023-05-11T22:47:59.971Z,13.20
2023-05-11T22:50:26.972Z,13.20
2023-05-11T22:52:54.862Z,13.20
2023-05-11T22:55:23.017Z,14.30
2023-05-11T22:57:50.073Z,13.10
2023-05-11T23:02:45.258Z,14.20
2023-05-11T23:05:12.457Z,13.40
2023-05-11T23:07:39.524Z,13.10
2023-05-11T23:10:07.500Z,13.40
2023-05-11T23:15:02.211Z,12.60
2023-05-11T23:17:29.278Z,13.70
2023-05-11T23:19:56.497Z,13.00
2023-05-11T23:22:23.503Z,13.00
2023-05-11T23:24:50.454Z,12.90
2023-05-11T23:27:17.816Z,13.20
2023-05-11T23:29:44.793Z,13.20
2023-05-11T23:32:11.817Z,13.10
2023-05-11T23:34:38.943Z,13.00
2023-05-11T23:37:06.286Z,13.20
2023-05-11T23:39:33.362Z,13.10
2023-05-11T23:42:01.041Z,13.10
2023-05-11T23:44:28.150Z,13.00
2023-05-11T23:46:55.165Z,13.20
2023-05-11T23:49:22.439Z,12.90
2023-05-11T23:51:49.419Z,13.10
2023-05-11T23:54:16.382Z,13.30
2023-05-11T23:56:44.212Z,13.00
2023-05-11T23:59:11.147Z,12.90
